sensor_id;sensor_type;location;lat;lon;timestamp;pressure;altitude;pressure_sealevel;temperature;humidity
76050;BME280;64967;50.234;19.224;2023-05-24T00:00:21;98068.34;;;16.42;100.00
76050;BME280;64967;50.234;19.224;2023-05-24T00:02:48;98063.97;;;16.41;100.00
76050;BME280;64967;50.234;19.224;2023-05-24T00:05:17;98067.75;;;16.40;100.00
76050;BME280;64967;50.234;19.224;2023-05-24T00:07:54;98067.44;;;16.36;100.00
76050;BME280;64967;50.234;19.224;2023-05-24T00:10:30;98063.81;;;16.31;100.00
76050;BME280;64967;50.234;19.224;2023-05-24T00:13:15;98066.53;;;16.31;100.00
76050;BME280;64967;50.234;19.224;2023-05-24T00:16:02;98062.66;;;16.27;100.00
76050;BME280;64967;50.234;19.224;2023-05-24T00:18:42;98067.72;;;16.18;100.00
76050;BME280;64967;50.234;19.224;2023-05-24T00:21:13;98063.03;;;16.14;100.00
76050;BME280;64967;50.234;19.224;2023-05-24T00:23:41;98060.47;;;16.07;100.00
76050;BME280;64967;50.234;19.224;2023-05-24T00:26:09;98072.19;;;16.07;100.00
76050;BME280;64967;50.234;19.224;2023-05-24T00:28:36;98062.53;;;16.00;100.00
76050;BME280;64967;50.234;19.224;2023-05-24T00:31:03;98058.91;;;15.94;100.00
76050;BME280;64967;50.234;19.224;2023-05-24T00:33:30;98064.75;;;15.86;100.00
76050;BME280;64967;50.234;19.224;2023-05-24T00:35:57;98057.34;;;15.82;100.00
76050;BME280;64967;50.234;19.224;2023-05-24T00:38:25;98066.00;;;15.79;100.00
76050;BME280;64967;50.234;19.224;2023-05-24T00:40:53;98062.59;;;15.72;100.00
76050;BME280;64967;50.234;19.224;2023-05-24T00:43:23;98067.91;;;15.61;100.00
76050;BME280;64967;50.234;19.224;2023-05-24T00:48:34;98065.91;;;15.57;100.00
76050;BME280;64967;50.234;19.224;2023-05-24T00:51:01;98063.66;;;15.54;100.00
76050;BME280;64967;50.234;19.224;2023-05-24T00:53:29;98067.38;;;15.48;100.00
76050;BME280;64967;50.234;19.224;2023-05-24T00:55:56;98070.00;;;15.43;100.00
76050;BME280;64967;50.234;19.224;2023-05-24T00:58:25;98075.44;;;15.43;100.00
76050;BME280;64967;50.234;19.224;2023-05-24T01:00:59;98070.31;;;15.46;100.00
76050;BME280;64967;50.234;19.224;2023-05-24T01:03:27;98069.38;;;15.52;100.00
76050;BME280;64967;50.234;19.224;2023-05-24T01:06:05;98077.38;;;15.59;100.00
76050;BME280;64967;50.234;19.224;2023-05-24T01:09:27;98080.09;;;15.59;100.00
76050;BME280;64967;50.234;19.224;2023-05-24T01:15:46;98087.97;;;15.55;100.00
76050;BME280;64967;50.234;19.224;2023-05-24T01:18:45;98082.28;;;15.45;100.00
76050;BME280;64967;50.234;19.224;2023-05-24T01:21:45;98075.53;;;15.48;100.00
76050;BME280;64967;50.234;19.224;2023-05-24T01:24:25;98092.28;;;15.40;100.00
76050;BME280;64967;50.234;19.224;2023-05-24T01:27:05;98098.91;;;15.44;100.00
76050;BME280;64967;50.234;19.224;2023-05-24T01:29:36;98091.69;;;15.38;100.00
76050;BME280;64967;50.234;19.224;2023-05-24T01:32:04;98102.81;;;15.36;100.00
76050;BME280;64967;50.234;19.224;2023-05-24T01:34:31;98093.75;;;15.31;100.00
76050;BME280;64967;50.234;19.224;2023-05-24T01:36:58;98099.63;;;15.39;100.00
76050;BME280;64967;50.234;19.224;2023-05-24T01:39:28;98089.47;;;15.35;100.00
76050;BME280;64967;50.234;19.224;2023-05-24T01:42:13;98093.25;;;15.34;100.00
76050;BME280;64967;50.234;19.224;2023-05-24T01:44:57;98101.66;;;15.32;100.00
76050;BME280;64967;50.234;19.224;2023-05-24T01:49:56;98096.66;;;15.12;100.00
76050;BME280;64967;50.234;19.224;2023-05-24T01:52:30;98089.22;;;15.08;100.00
76050;BME280;64967;50.234;19.224;2023-05-24T01:55:00;98086.13;;;15.04;100.00
76050;BME280;64967;50.234;19.224;2023-05-24T01:57:28;98092.66;;;15.03;100.00
76050;BME280;64967;50.234;19.224;2023-05-24T01:59:56;98103.13;;;14.95;100.00
76050;BME280;64967;50.234;19.224;2023-05-24T02:02:24;98098.00;;;14.98;100.00
76050;BME280;64967;50.234;19.224;2023-05-24T02:04:51;98100.13;;;14.96;100.00
76050;BME280;64967;50.234;19.224;2023-05-24T02:07:18;98101.91;;;14.91;100.00
76050;BME280;64967;50.234;19.224;2023-05-24T02:09:45;98108.06;;;14.86;100.00
76050;BME280;64967;50.234;19.224;2023-05-24T02:12:12;98101.22;;;14.84;100.00
76050;BME280;64967;50.234;19.224;2023-05-24T02:14:39;98111.28;;;14.83;100.00
76050;BME280;64967;50.234;19.224;2023-05-24T02:17:08;98112.34;;;14.82;100.00
76050;BME280;64967;50.234;19.224;2023-05-24T02:19:35;98121.13;;;14.72;100.00
76050;BME280;64967;50.234;19.224;2023-05-24T02:22:02;98113.59;;;14.63;100.00
76050;BME280;64967;50.234;19.224;2023-05-24T02:24:30;98116.88;;;14.65;100.00
76050;BME280;64967;50.234;19.224;2023-05-24T02:26:57;98117.38;;;14.62;100.00
76050;BME280;64967;50.234;19.224;2023-05-24T02:29:24;98122.81;;;14.62;100.00
76050;BME280;64967;50.234;19.224;2023-05-24T02:31:51;98119.50;;;14.60;100.00
76050;BME280;64967;50.234;19.224;2023-05-24T02:34:22;98121.53;;;14.53;100.00
76050;BME280;64967;50.234;19.224;2023-05-24T02:36:50;98124.72;;;14.50;100.00
76050;BME280;64967;50.234;19.224;2023-05-24T02:39:19;98113.13;;;14.43;100.00
76050;BME280;64967;50.234;19.224;2023-05-24T02:41:47;98126.72;;;14.54;100.00
76050;BME280;64967;50.234;19.224;2023-05-24T02:44:14;98132.53;;;14.58;100.00
76050;BME280;64967;50.234;19.224;2023-05-24T02:46:41;98130.84;;;14.57;100.00
76050;BME280;64967;50.234;19.224;2023-05-24T02:49:08;98132.88;;;14.61;100.00
76050;BME280;64967;50.234;19.224;2023-05-24T02:51:36;98128.75;;;14.59;100.00
76050;BME280;64967;50.234;19.224;2023-05-24T02:54:03;98135.81;;;14.60;100.00
76050;BME280;64967;50.234;19.224;2023-05-24T02:56:30;98128.81;;;14.64;100.00
76050;BME280;64967;50.234;19.224;2023-05-24T02:58:57;98135.81;;;14.60;100.00
76050;BME280;64967;50.234;19.224;2023-05-24T03:01:24;98135.34;;;14.63;100.00
76050;BME280;64967;50.234;19.224;2023-05-24T03:03:51;98138.09;;;14.63;100.00
76050;BME280;64967;50.234;19.224;2023-05-24T03:06:18;98142.44;;;14.64;100.00
76050;BME280;64967;50.234;19.224;2023-05-24T03:08:45;98140.81;;;14.63;100.00
76050;BME280;64967;50.234;19.224;2023-05-24T03:11:12;98138.16;;;14.68;100.00
76050;BME280;64967;50.234;19.224;2023-05-24T03:13:41;98139.63;;;14.59;100.00
76050;BME280;64967;50.234;19.224;2023-05-24T03:16:08;98134.97;;;14.59;100.00
76050;BME280;64967;50.234;19.224;2023-05-24T03:18:35;98139.38;;;14.60;100.00
76050;BME280;64967;50.234;19.224;2023-05-24T03:21:02;98145.41;;;14.51;100.00
76050;BME280;64967;50.234;19.224;2023-05-24T03:23:29;98138.31;;;14.50;100.00
76050;BME280;64967;50.234;19.224;2023-05-24T03:25:56;98137.72;;;14.48;100.00
76050;BME280;64967;50.234;19.224;2023-05-24T03:28:23;98140.56;;;14.53;100.00
76050;BME280;64967;50.234;19.224;2023-05-24T03:30:50;98149.91;;;14.57;100.00
76050;BME280;64967;50.234;19.224;2023-05-24T03:33:17;98144.94;;;14.54;100.00
76050;BME280;64967;50.234;19.224;2023-05-24T03:35:44;98142.09;;;14.60;100.00
76050;BME280;64967;50.234;19.224;2023-05-24T03:38:11;98141.59;;;14.63;100.00
76050;BME280;64967;50.234;19.224;2023-05-24T03:40:38;98147.88;;;14.64;100.00
76050;BME280;64967;50.234;19.224;2023-05-24T03:43:05;98157.22;;;14.68;100.00
76050;BME280;64967;50.234;19.224;2023-05-24T03:45:32;98147.53;;;14.60;100.00
76050;BME280;64967;50.234;19.224;2023-05-24T03:48:05;98141.13;;;14.55;100.00
76050;BME280;64967;50.234;19.224;2023-05-24T03:50:33;98148.84;;;14.58;100.00
76050;BME280;64967;50.234;19.224;2023-05-24T03:53:00;98144.59;;;14.62;100.00
76050;BME280;64967;50.234;19.224;2023-05-24T03:55:27;98152.75;;;14.62;100.00
76050;BME280;64967;50.234;19.224;2023-05-24T03:57:54;98153.81;;;14.61;100.00
76050;BME280;64967;50.234;19.224;2023-05-24T04:00:21;98155.59;;;14.67;100.00
76050;BME280;64967;50.234;19.224;2023-05-24T04:02:48;98155.94;;;14.70;100.00
76050;BME280;64967;50.234;19.224;2023-05-24T04:05:15;98160.53;;;14.70;100.00
76050;BME280;64967;50.234;19.224;2023-05-24T04:07:42;98170.38;;;14.71;100.00
76050;BME280;64967;50.234;19.224;2023-05-24T04:10:11;98165.38;;;14.68;100.00
76050;BME280;64967;50.234;19.224;2023-05-24T04:12:40;98169.31;;;14.72;100.00
76050;BME280;64967;50.234;19.224;2023-05-24T04:15:08;98177.56;;;14.77;100.00
76050;BME280;64967;50.234;19.224;2023-05-24T04:17:35;98181.94;;;14.78;100.00
76050;BME280;64967;50.234;19.224;2023-05-24T04:20:03;98182.28;;;14.82;100.00
76050;BME280;64967;50.234;19.224;2023-05-24T04:22:31;98187.16;;;14.80;100.00
76050;BME280;64967;50.234;19.224;2023-05-24T04:24:58;98193.19;;;14.82;100.00
76050;BME280;64967;50.234;19.224;2023-05-24T04:27:25;98195.31;;;14.91;100.00
76050;BME280;64967;50.234;19.224;2023-05-24T04:29:53;98195.78;;;14.88;100.00
76050;BME280;64967;50.234;19.224;2023-05-24T04:32:20;98196.84;;;14.87;100.00
76050;BME280;64967;50.234;19.224;2023-05-24T04:34:47;98202.28;;;14.87;100.00
76050;BME280;64967;50.234;19.224;2023-05-24T04:37:14;98200.28;;;14.94;100.00
76050;BME280;64967;50.234;19.224;2023-05-24T04:39:43;98206.31;;;14.96;100.00
76050;BME280;64967;50.234;19.224;2023-05-24T04:42:11;98213.31;;;14.92;100.00
76050;BME280;64967;50.234;19.224;2023-05-24T04:44:41;98207.28;;;14.90;100.00
76050;BME280;64967;50.234;19.224;2023-05-24T04:47:08;98204.66;;;14.95;100.00
76050;BME280;64967;50.234;19.224;2023-05-24T04:49:36;98206.66;;;15.00;100.00
76050;BME280;64967;50.234;19.224;2023-05-24T04:52:03;98207.63;;;14.94;100.00
76050;BME280;64967;50.234;19.224;2023-05-24T04:54:31;98210.34;;;14.94;100.00
76050;BME280;64967;50.234;19.224;2023-05-24T04:56:58;98207.97;;;14.97;100.00
76050;BME280;64967;50.234;19.224;2023-05-24T04:59:25;98214.81;;;15.00;100.00
76050;BME280;64967;50.234;19.224;2023-05-24T05:01:52;98219.22;;;15.01;100.00
76050;BME280;64967;50.234;19.224;2023-05-24T05:04:19;98217.91;;;15.03;100.00
76050;BME280;64967;50.234;19.224;2023-05-24T05:06:46;98217.19;;;15.08;100.00
76050;BME280;64967;50.234;19.224;2023-05-24T05:09:14;98231.03;;;15.06;100.00
76050;BME280;64967;50.234;19.224;2023-05-24T05:11:41;98236.50;;;14.83;100.00
76050;BME280;64967;50.234;19.224;2023-05-24T05:14:09;98241.81;;;14.43;100.00
76050;BME280;64967;50.234;19.224;2023-05-24T05:16:37;98256.41;;;14.30;100.00
76050;BME280;64967;50.234;19.224;2023-05-24T05:19:04;98252.31;;;14.10;100.00
76050;BME280;64967;50.234;19.224;2023-05-24T05:21:32;98263.19;;;14.10;100.00
76050;BME280;64967;50.234;19.224;2023-05-24T05:24:00;98262.97;;;14.00;100.00
76050;BME280;64967;50.234;19.224;2023-05-24T05:26:28;98264.28;;;13.79;100.00
76050;BME280;64967;50.234;19.224;2023-05-24T05:28:56;98276.78;;;13.50;100.00
76050;BME280;64967;50.234;19.224;2023-05-24T05:31:23;98274.66;;;13.34;100.00
76050;BME280;64967;50.234;19.224;2023-05-24T05:33:50;98276.16;;;13.30;100.00
76050;BME280;64967;50.234;19.224;2023-05-24T05:36:17;98278.44;;;13.15;100.00
76050;BME280;64967;50.234;19.224;2023-05-24T05:38:44;98294.00;;;13.01;100.00
76050;BME280;64967;50.234;19.224;2023-05-24T05:41:12;98293.22;;;12.94;100.00
76050;BME280;64967;50.234;19.224;2023-05-24T05:43:39;98289.22;;;12.78;100.00
76050;BME280;64967;50.234;19.224;2023-05-24T05:46:06;98300.78;;;12.92;100.00
76050;BME280;64967;50.234;19.224;2023-05-24T05:48:33;98293.06;;;12.89;100.00
76050;BME280;64967;50.234;19.224;2023-05-24T05:51:00;98307.00;;;12.92;100.00
76050;BME280;64967;50.234;19.224;2023-05-24T05:53:27;98297.44;;;12.90;100.00
76050;BME280;64967;50.234;19.224;2023-05-24T05:55:54;98309.13;;;12.90;100.00
76050;BME280;64967;50.234;19.224;2023-05-24T05:58:21;98319.91;;;12.97;100.00
76050;BME280;64967;50.234;19.224;2023-05-24T06:00:48;98315.31;;;12.97;100.00
76050;BME280;64967;50.234;19.224;2023-05-24T06:03:15;98322.03;;;12.95;100.00
76050;BME280;64967;50.234;19.224;2023-05-24T06:05:42;98322.19;;;12.75;100.00
76050;BME280;64967;50.234;19.224;2023-05-24T06:08:09;98329.25;;;12.83;100.00
76050;BME280;64967;50.234;19.224;2023-05-24T06:10:36;98335.84;;;12.69;100.00
76050;BME280;64967;50.234;19.224;2023-05-24T06:13:03;98332.31;;;12.62;100.00
76050;BME280;64967;50.234;19.224;2023-05-24T06:15:30;98341.94;;;12.58;100.00
76050;BME280;64967;50.234;19.224;2023-05-24T06:17:59;98344.06;;;12.56;100.00
76050;BME280;64967;50.234;19.224;2023-05-24T06:20:28;98342.84;;;12.51;100.00
76050;BME280;64967;50.234;19.224;2023-05-24T06:23:29;98346.50;;;12.64;100.00
76050;BME280;64967;50.234;19.224;2023-05-24T06:25:56;98349.91;;;12.52;100.00
76050;BME280;64967;50.234;19.224;2023-05-24T06:28:23;98361.03;;;12.44;100.00
76050;BME280;64967;50.234;19.224;2023-05-24T06:30:50;98357.09;;;12.40;100.00
76050;BME280;64967;50.234;19.224;2023-05-24T06:33:17;98370.03;;;12.38;100.00
76050;BME280;64967;50.234;19.224;2023-05-24T06:35:44;98372.22;;;12.23;100.00
76050;BME280;64967;50.234;19.224;2023-05-24T06:38:11;98375.59;;;12.12;100.00
76050;BME280;64967;50.234;19.224;2023-05-24T06:40:38;98375.88;;;12.04;100.00
76050;BME280;64967;50.234;19.224;2023-05-24T06:43:06;98379.41;;;11.98;100.00
76050;BME280;64967;50.234;19.224;2023-05-24T06:45:33;98383.41;;;11.95;100.00
76050;BME280;64967;50.234;19.224;2023-05-24T06:48:00;98391.13;;;11.92;100.00
76050;BME280;64967;50.234;19.224;2023-05-24T06:50:27;98394.50;;;11.81;100.00
76050;BME280;64967;50.234;19.224;2023-05-24T06:52:54;98391.19;;;11.79;100.00
76050;BME280;64967;50.234;19.224;2023-05-24T06:55:21;98395.13;;;11.83;100.00
76050;BME280;64967;50.234;19.224;2023-05-24T06:57:48;98392.44;;;11.83;100.00
76050;BME280;64967;50.234;19.224;2023-05-24T07:00:16;98402.81;;;11.86;100.00
76050;BME280;64967;50.234;19.224;2023-05-24T07:02:43;98401.16;;;11.85;100.00
76050;BME280;64967;50.234;19.224;2023-05-24T07:05:10;98397.81;;;11.89;100.00
76050;BME280;64967;50.234;19.224;2023-05-24T07:07:38;98410.31;;;11.97;100.00
76050;BME280;64967;50.234;19.224;2023-05-24T07:10:06;98405.72;;;11.91;100.00
76050;BME280;64967;50.234;19.224;2023-05-24T07:12:33;98412.00;;;11.85;100.00
76050;BME280;64967;50.234;19.224;2023-05-24T07:15:01;98430.75;;;11.93;100.00
76050;BME280;64967;50.234;19.224;2023-05-24T07:17:28;98416.16;;;11.87;100.00
76050;BME280;64967;50.234;19.224;2023-05-24T07:19:55;98425.31;;;11.93;100.00
76050;BME280;64967;50.234;19.224;2023-05-24T07:22:23;98434.03;;;12.01;100.00
76050;BME280;64967;50.234;19.224;2023-05-24T07:24:51;98421.19;;;11.84;100.00
76050;BME280;64967;50.234;19.224;2023-05-24T07:27:18;98428.03;;;11.80;100.00
76050;BME280;64967;50.234;19.224;2023-05-24T07:29:45;98427.88;;;11.75;100.00
76050;BME280;64967;50.234;19.224;2023-05-24T07:32:14;98432.41;;;11.87;100.00
76050;BME280;64967;50.234;19.224;2023-05-24T07:34:41;98431.59;;;11.87;100.00
76050;BME280;64967;50.234;19.224;2023-05-24T07:37:08;98437.84;;;11.81;100.00
76050;BME280;64967;50.234;19.224;2023-05-24T07:39:36;98439.13;;;11.78;100.00
76050;BME280;64967;50.234;19.224;2023-05-24T07:42:04;98443.03;;;11.89;100.00
76050;BME280;64967;50.234;19.224;2023-05-24T07:44:32;98449.28;;;11.89;100.00
76050;BME280;64967;50.234;19.224;2023-05-24T07:46:59;98444.94;;;11.88;100.00
76050;BME280;64967;50.234;19.224;2023-05-24T07:49:28;98447.00;;;11.93;100.00
76050;BME280;64967;50.234;19.224;2023-05-24T07:51:55;98453.50;;;11.79;100.00
76050;BME280;64967;50.234;19.224;2023-05-24T07:54:25;98448.91;;;11.79;100.00
76050;BME280;64967;50.234;19.224;2023-05-24T07:56:52;98453.06;;;11.82;100.00
76050;BME280;64967;50.234;19.224;2023-05-24T07:59:19;98455.13;;;11.80;100.00
76050;BME280;64967;50.234;19.224;2023-05-24T08:01:47;98463.25;;;11.86;100.00
76050;BME280;64967;50.234;19.224;2023-05-24T08:04:14;98463.84;;;12.01;100.00
76050;BME280;64967;50.234;19.224;2023-05-24T08:06:41;98461.56;;;11.98;100.00
76050;BME280;64967;50.234;19.224;2023-05-24T08:09:09;98457.59;;;12.01;100.00
76050;BME280;64967;50.234;19.224;2023-05-24T08:11:36;98469.88;;;12.03;100.00
76050;BME280;64967;50.234;19.224;2023-05-24T08:14:03;98471.16;;;12.01;100.00
76050;BME280;64967;50.234;19.224;2023-05-24T08:16:30;98473.41;;;12.11;100.00
76050;BME280;64967;50.234;19.224;2023-05-24T08:18:57;98471.09;;;12.14;100.00
76050;BME280;64967;50.234;19.224;2023-05-24T08:21:25;98469.38;;;12.26;100.00
76050;BME280;64967;50.234;19.224;2023-05-24T08:23:53;98483.09;;;12.38;100.00
76050;BME280;64967;50.234;19.224;2023-05-24T08:26:20;98483.13;;;12.25;100.00
76050;BME280;64967;50.234;19.224;2023-05-24T08:28:47;98484.41;;;12.22;100.00
76050;BME280;64967;50.234;19.224;2023-05-24T08:31:14;98484.44;;;12.16;100.00
76050;BME280;64967;50.234;19.224;2023-05-24T08:33:42;98497.97;;;12.22;100.00
76050;BME280;64967;50.234;19.224;2023-05-24T08:36:09;98493.13;;;12.31;100.00
76050;BME280;64967;50.234;19.224;2023-05-24T08:38:36;98499.53;;;12.43;100.00
76050;BME280;64967;50.234;19.224;2023-05-24T08:41:04;98507.66;;;12.49;100.00
76050;BME280;64967;50.234;19.224;2023-05-24T08:43:35;98511.97;;;12.64;100.00
76050;BME280;64967;50.234;19.224;2023-05-24T08:46:04;98509.44;;;12.69;100.00
76050;BME280;64967;50.234;19.224;2023-05-24T08:48:31;98512.09;;;12.75;100.00
76050;BME280;64967;50.234;19.224;2023-05-24T08:51:00;98506.16;;;12.60;100.00
76050;BME280;64967;50.234;19.224;2023-05-24T08:53:29;98517.84;;;12.54;100.00
76050;BME280;64967;50.234;19.224;2023-05-24T08:55:57;98527.06;;;12.46;100.00
76050;BME280;64967;50.234;19.224;2023-05-24T08:58:24;98532.91;;;12.43;100.00
76050;BME280;64967;50.234;19.224;2023-05-24T09:00:52;98537.28;;;12.44;100.00
76050;BME280;64967;50.234;19.224;2023-05-24T09:03:19;98538.97;;;12.45;100.00
76050;BME280;64967;50.234;19.224;2023-05-24T09:05:46;98532.72;;;12.38;100.00
76050;BME280;64967;50.234;19.224;2023-05-24T09:08:14;98538.34;;;12.43;100.00
76050;BME280;64967;50.234;19.224;2023-05-24T09:10:44;98540.69;;;12.33;100.00
76050;BME280;64967;50.234;19.224;2023-05-24T09:13:22;98535.91;;;12.22;100.00
76050;BME280;64967;50.234;19.224;2023-05-24T09:15:51;98561.94;;;12.30;100.00
76050;BME280;64967;50.234;19.224;2023-05-24T09:18:18;98558.06;;;12.06;100.00
76050;BME280;64967;50.234;19.224;2023-05-24T09:20:45;98567.44;;;12.10;100.00
76050;BME280;64967;50.234;19.224;2023-05-24T09:23:13;98568.91;;;12.06;100.00
76050;BME280;64967;50.234;19.224;2023-05-24T09:25:43;98574.97;;;12.01;100.00
76050;BME280;64967;50.234;19.224;2023-05-24T09:28:13;98572.25;;;12.01;100.00
76050;BME280;64967;50.234;19.224;2023-05-24T09:30:45;98567.66;;;11.95;100.00
76050;BME280;64967;50.234;19.224;2023-05-24T09:33:12;98562.66;;;11.99;100.00
76050;BME280;64967;50.234;19.224;2023-05-24T09:35:43;98580.78;;;11.98;100.00
76050;BME280;64967;50.234;19.224;2023-05-24T09:38:17;98578.88;;;12.12;100.00
76050;BME280;64967;50.234;19.224;2023-05-24T09:40:45;98584.75;;;12.16;100.00
76050;BME280;64967;50.234;19.224;2023-05-24T09:43:12;98590.59;;;12.06;100.00
76050;BME280;64967;50.234;19.224;2023-05-24T09:45:46;98577.88;;;12.06;100.00
76050;BME280;64967;50.234;19.224;2023-05-24T09:48:14;98578.88;;;12.12;100.00
76050;BME280;64967;50.234;19.224;2023-05-24T09:50:42;98586.63;;;12.15;100.00
76050;BME280;64967;50.234;19.224;2023-05-24T09:53:16;98589.53;;;12.20;100.00
76050;BME280;64967;50.234;19.224;2023-05-24T09:55:44;98581.16;;;12.28;100.00
76050;BME280;64967;50.234;19.224;2023-05-24T09:58:11;98588.03;;;12.37;100.00
76050;BME280;64967;50.234;19.224;2023-05-24T10:00:40;98582.75;;;12.49;100.00
76050;BME280;64967;50.234;19.224;2023-05-24T10:03:09;98586.50;;;12.55;100.00
76050;BME280;64967;50.234;19.224;2023-05-24T10:05:41;98588.56;;;12.52;100.00
76050;BME280;64967;50.234;19.224;2023-05-24T10:08:10;98589.66;;;12.45;100.00
76050;BME280;64967;50.234;19.224;2023-05-24T10:10:37;98591.09;;;12.61;100.00
76050;BME280;64967;50.234;19.224;2023-05-24T10:13:04;98596.06;;;12.64;100.00
76050;BME280;64967;50.234;19.224;2023-05-24T10:15:32;98603.16;;;12.65;99.60
76050;BME280;64967;50.234;19.224;2023-05-24T10:17:59;98603.56;;;12.62;99.26
76050;BME280;64967;50.234;19.224;2023-05-24T10:20:27;98609.44;;;12.59;100.00
76050;BME280;64967;50.234;19.224;2023-05-24T10:22:59;98605.50;;;12.48;99.63
76050;BME280;64967;50.234;19.224;2023-05-24T10:25:28;98609.91;;;12.42;100.00
76050;BME280;64967;50.234;19.224;2023-05-24T10:28:05;98599.91;;;12.36;100.00
76050;BME280;64967;50.234;19.224;2023-05-24T10:30:36;98613.03;;;12.46;100.00
76050;BME280;64967;50.234;19.224;2023-05-24T10:33:11;98617.38;;;12.53;100.00
76050;BME280;64967;50.234;19.224;2023-05-24T10:35:40;98620.31;;;12.39;99.84
76050;BME280;64967;50.234;19.224;2023-05-24T10:38:08;98625.81;;;12.19;100.00
76050;BME280;64967;50.234;19.224;2023-05-24T10:40:45;98619.13;;;12.08;100.00
76050;BME280;64967;50.234;19.224;2023-05-24T10:43:15;98615.78;;;12.33;100.00
76050;BME280;64967;50.234;19.224;2023-05-24T10:45:47;98617.84;;;12.37;100.00
76050;BME280;64967;50.234;19.224;2023-05-24T10:50:43;98613.91;;;12.20;100.00
76050;BME280;64967;50.234;19.224;2023-05-24T10:53:15;98619.53;;;12.32;100.00
76050;BME280;64967;50.234;19.224;2023-05-24T10:55:59;98625.16;;;12.37;99.98
76050;BME280;64967;50.234;19.224;2023-05-24T11:01:01;98606.66;;;12.72;98.93
76050;BME280;64967;50.234;19.224;2023-05-24T11:03:32;98626.44;;;12.92;97.47
76050;BME280;64967;50.234;19.224;2023-05-24T11:05:59;98618.00;;;13.13;97.56
76050;BME280;64967;50.234;19.224;2023-05-24T11:08:31;98625.00;;;12.83;96.56
76050;BME280;64967;50.234;19.224;2023-05-24T11:13:55;98619.75;;;12.88;96.83
76050;BME280;64967;50.234;19.224;2023-05-24T11:16:37;98623.63;;;13.18;94.75
76050;BME280;64967;50.234;19.224;2023-05-24T11:19:18;98615.03;;;13.21;95.36
76050;BME280;64967;50.234;19.224;2023-05-24T11:21:50;98614.59;;;13.24;93.96
76050;BME280;64967;50.234;19.224;2023-05-24T11:24:18;98631.69;;;13.63;93.81
76050;BME280;64967;50.234;19.224;2023-05-24T11:26:46;98620.56;;;13.71;93.78
76050;BME280;64967;50.234;19.224;2023-05-24T11:29:13;98628.97;;;13.63;92.19
76050;BME280;64967;50.234;19.224;2023-05-24T11:31:55;98625.13;;;13.46;91.52
76050;BME280;64967;50.234;19.224;2023-05-24T11:34:32;98625.13;;;13.46;92.65
76050;BME280;64967;50.234;19.224;2023-05-24T11:37:00;98603.59;;;13.44;93.23
76050;BME280;64967;50.234;19.224;2023-05-24T11:39:33;98621.41;;;13.65;92.35
76050;BME280;64967;50.234;19.224;2023-05-24T11:42:04;98627.66;;;13.72;91.71
76050;BME280;64967;50.234;19.224;2023-05-24T11:44:33;98610.63;;;13.83;91.39
76050;BME280;64967;50.234;19.224;2023-05-24T11:47:01;98609.75;;;13.89;90.62
76050;BME280;64967;50.234;19.224;2023-05-24T11:49:29;98624.41;;;14.13;89.01
76050;BME280;64967;50.234;19.224;2023-05-24T11:51:57;98617.06;;;14.13;91.02
76050;BME280;64967;50.234;19.224;2023-05-24T11:54:26;98623.34;;;14.32;90.08
76050;BME280;64967;50.234;19.224;2023-05-24T11:56:53;98615.72;;;14.22;89.24
76050;BME280;64967;50.234;19.224;2023-05-24T11:59:27;98633.63;;;14.30;90.87
76050;BME280;64967;50.234;19.224;2023-05-24T12:02:05;98618.13;;;13.88;89.97
76050;BME280;64967;50.234;19.224;2023-05-24T12:04:32;98629.03;;;14.06;90.70
76050;BME280;64967;50.234;19.224;2023-05-24T12:07:01;98623.44;;;14.25;89.97
76050;BME280;64967;50.234;19.224;2023-05-24T12:09:29;98623.34;;;14.57;88.87
76050;BME280;64967;50.234;19.224;2023-05-24T12:11:56;98626.22;;;14.62;87.55
76050;BME280;64967;50.234;19.224;2023-05-24T12:14:30;98623.66;;;14.67;89.08
76050;BME280;64967;50.234;19.224;2023-05-24T12:16:59;98618.25;;;14.42;87.11
76050;BME280;64967;50.234;19.224;2023-05-24T12:19:32;98622.59;;;14.50;88.24
76050;BME280;64967;50.234;19.224;2023-05-24T12:22:04;98624.09;;;14.46;87.28
76050;BME280;64967;50.234;19.224;2023-05-24T12:24:36;98619.13;;;14.79;87.56
76050;BME280;64967;50.234;19.224;2023-05-24T12:27:03;98622.56;;;15.04;86.31
76050;BME280;64967;50.234;19.224;2023-05-24T12:29:36;98627.56;;;15.07;85.69
76050;BME280;64967;50.234;19.224;2023-05-24T12:32:05;98629.84;;;14.92;85.59
76050;BME280;64967;50.234;19.224;2023-05-24T12:34:41;98605.66;;;14.48;86.67
76050;BME280;64967;50.234;19.224;2023-05-24T12:37:10;98627.75;;;14.58;86.87
76050;BME280;64967;50.234;19.224;2023-05-24T12:39:39;98629.25;;;14.90;87.10
76050;BME280;64967;50.234;19.224;2023-05-24T12:42:09;98629.25;;;14.72;85.94
76050;BME280;64967;50.234;19.224;2023-05-24T12:44:38;98618.91;;;14.81;87.40
76050;BME280;64967;50.234;19.224;2023-05-24T12:47:06;98622.31;;;14.58;86.79
76050;BME280;64967;50.234;19.224;2023-05-24T12:49:34;98624.94;;;14.21;87.84
76050;BME280;64967;50.234;19.224;2023-05-24T12:52:02;98631.94;;;14.11;88.23
76050;BME280;64967;50.234;19.224;2023-05-24T12:54:29;98627.53;;;14.10;89.69
76050;BME280;64967;50.234;19.224;2023-05-24T12:56:56;98622.56;;;14.07;90.30
76050;BME280;64967;50.234;19.224;2023-05-24T12:59:26;98627.13;;;14.13;89.90
76050;BME280;64967;50.234;19.224;2023-05-24T13:01:54;98621.38;;;13.96;90.69
76050;BME280;64967;50.234;19.224;2023-05-24T13:04:22;98628.28;;;13.99;90.64
76050;BME280;64967;50.234;19.224;2023-05-24T13:06:52;98631.94;;;14.11;89.54
76050;BME280;64967;50.234;19.224;2023-05-24T13:09:19;98635.69;;;14.10;90.55